Overview Statistics Trail Chart Weather Telemetry Raw packets
 

This is the latest recevied weather packets stored in our database for station/object YO8PIC-13. If no packets are shown the sender has not sent any weather packets the latest 10 day(s).

<< 23 24 25 26 27 28 29 >>
Time Temp. Humidity Pressure Rain* Wind** Luminosity Snow
1788204739 25° C 33% 1018.2 hPa - - - -
1788204139 25.56° C 31% 1017.8 hPa - - - -
1788203540 26.11° C 29% 1017.7 hPa - - - -
1788202939 26.11° C 30% 1017.8 hPa - - - -
1788202339 26.11° C 29% 1017.7 hPa - - - -
1788201740 26.11° C 29% 1017.9 hPa - - - -
1788201139 26.67° C 29% 1017.8 hPa - - - -
1788200539 26.67° C 28% 1017.7 hPa - - - -
1788199940 26.67° C 29% 1017.8 hPa - - - -
1788199339 26.67° C 28% 1017.7 hPa - - - -
1788198739 27.22° C 27% 1017.7 hPa - - - -
1788198139 27.22° C 28% 1017.6 hPa - - - -
1788197540 27.22° C 27% 1017.5 hPa - - - -
1788196941 27.22° C 29% 1017.3 hPa - - - -
1788196340 27.22° C 30% 1017.4 hPa - - - -
1788195739 27.22° C 30% 1017.3 hPa - - - -
1788195140 27.78° C 29% 1017.2 hPa - - - -
1788194539 28.33° C 29% 1017.1 hPa - - - -
1788193940 28.89° C 27% 1017 hPa - - - -
1788193339 29.44° C 26% 1017.1 hPa - - - -
1788192739 30.56° C 24% 1017 hPa - - - -
1788192139 31.11° C 22% 1016.9 hPa - - - -
1788191539 32.78° C 19% 1017 hPa - - - -
1788190939 36.67° C 15% 1017 hPa - - - -
1788190339 38.33° C 14% 1016.9 hPa - - - -

* Rain since midnight (hover to see other rain measurements)
** Current wind speed in m/s (hover to see current wind gust speed)